sensor_id;sensor_type;location;lat;lon;timestamp;P1;durP1;ratioP1;P2;durP2;ratioP2
26702;SDS011;14316;51.074;3.704;2023-09-18T00:00:46;12.85;;;11.65;;
26702;SDS011;14316;51.074;3.704;2023-09-18T00:03:16;12.35;;;11.15;;
26702;SDS011;14316;51.074;3.704;2023-09-18T00:05:44;12.18;;;11.02;;
26702;SDS011;14316;51.074;3.704;2023-09-18T00:08:13;12.13;;;11.02;;
26702;SDS011;14316;51.074;3.704;2023-09-18T00:10:40;12.48;;;10.93;;
26702;SDS011;14316;51.074;3.704;2023-09-18T00:13:06;11.25;;;10.25;;
26702;SDS011;14316;51.074;3.704;2023-09-18T00:15:32;11.45;;;10.32;;
26702;SDS011;14316;51.074;3.704;2023-09-18T00:17:58;11.55;;;9.82;;
26702;SDS011;14316;51.074;3.704;2023-09-18T00:20:25;10.80;;;9.80;;
26702;SDS011;14316;51.074;3.704;2023-09-18T00:22:55;10.98;;;10.02;;
26702;SDS011;14316;51.074;3.704;2023-09-18T00:25:21;10.45;;;9.45;;
26702;SDS011;14316;51.074;3.704;2023-09-18T00:27:48;10.57;;;9.07;;
26702;SDS011;14316;51.074;3.704;2023-09-18T00:30:14;10.85;;;9.75;;
26702;SDS011;14316;51.074;3.704;2023-09-18T00:32:40;10.80;;;9.60;;
26702;SDS011;14316;51.074;3.704;2023-09-18T00:35:07;10.90;;;9.80;;
26702;SDS011;14316;51.074;3.704;2023-09-18T00:37:33;11.05;;;9.98;;
26702;SDS011;14316;51.074;3.704;2023-09-18T00:39:59;10.23;;;9.32;;
26702;SDS011;14316;51.074;3.704;2023-09-18T00:42:26;10.95;;;9.85;;
26702;SDS011;14316;51.074;3.704;2023-09-18T00:44:52;10.32;;;8.90;;
26702;SDS011;14316;51.074;3.704;2023-09-18T00:47:17;11.20;;;9.23;;
26702;SDS011;14316;51.074;3.704;2023-09-18T00:49:45;10.77;;;9.38;;
26702;SDS011;14316;51.074;3.704;2023-09-18T00:52:13;11.23;;;9.90;;
26702;SDS011;14316;51.074;3.704;2023-09-18T00:54:41;11.07;;;9.60;;
26702;SDS011;14316;51.074;3.704;2023-09-18T00:57:09;10.27;;;9.18;;
26702;SDS011;14316;51.074;3.704;2023-09-18T00:59:36;10.45;;;9.38;;
26702;SDS011;14316;51.074;3.704;2023-09-18T01:02:02;10.35;;;9.30;;
26702;SDS011;14316;51.074;3.704;2023-09-18T01:04:29;9.63;;;8.43;;
26702;SDS011;14316;51.074;3.704;2023-09-18T01:06:58;10.15;;;9.18;;
26702;SDS011;14316;51.074;3.704;2023-09-18T01:09:33;9.50;;;8.52;;
26702;SDS011;14316;51.074;3.704;2023-09-18T01:14:57;9.98;;;8.93;;
26702;SDS011;14316;51.074;3.704;2023-09-18T01:17:26;10.45;;;9.25;;
26702;SDS011;14316;51.074;3.704;2023-09-18T01:19:52;10.02;;;8.50;;
26702;SDS011;14316;51.074;3.704;2023-09-18T01:22:18;9.77;;;8.80;;
26702;SDS011;14316;51.074;3.704;2023-09-18T01:24:45;10.15;;;8.98;;
26702;SDS011;14316;51.074;3.704;2023-09-18T01:27:15;13.60;;;9.38;;
26702;SDS011;14316;51.074;3.704;2023-09-18T01:29:43;12.27;;;8.63;;
26702;SDS011;14316;51.074;3.704;2023-09-18T01:32:10;9.80;;;8.80;;
26702;SDS011;14316;51.074;3.704;2023-09-18T01:34:37;9.93;;;8.75;;
26702;SDS011;14316;51.074;3.704;2023-09-18T01:37:15;9.88;;;9.00;;
26702;SDS011;14316;51.074;3.704;2023-09-18T01:39:44;8.52;;;7.82;;
26702;SDS011;14316;51.074;3.704;2023-09-18T01:42:13;9.93;;;8.48;;
26702;SDS011;14316;51.074;3.704;2023-09-18T01:44:40;8.60;;;7.78;;
26702;SDS011;14316;51.074;3.704;2023-09-18T01:47:07;9.23;;;8.32;;
26702;SDS011;14316;51.074;3.704;2023-09-18T01:49:39;9.35;;;8.35;;
26702;SDS011;14316;51.074;3.704;2023-09-18T01:52:06;9.10;;;8.18;;
26702;SDS011;14316;51.074;3.704;2023-09-18T01:54:33;10.30;;;9.20;;
26702;SDS011;14316;51.074;3.704;2023-09-18T01:57:00;9.63;;;8.73;;
26702;SDS011;14316;51.074;3.704;2023-09-18T01:59:27;11.02;;;8.15;;
26702;SDS011;14316;51.074;3.704;2023-09-18T02:01:54;9.80;;;8.75;;
26702;SDS011;14316;51.074;3.704;2023-09-18T02:04:20;12.43;;;8.77;;
26702;SDS011;14316;51.074;3.704;2023-09-18T02:06:48;9.73;;;8.73;;
26702;SDS011;14316;51.074;3.704;2023-09-18T02:09:15;9.50;;;8.60;;
26702;SDS011;14316;51.074;3.704;2023-09-18T02:11:42;10.30;;;9.02;;
26702;SDS011;14316;51.074;3.704;2023-09-18T02:14:10;10.07;;;9.07;;
26702;SDS011;14316;51.074;3.704;2023-09-18T02:16:37;10.85;;;9.73;;
26702;SDS011;14316;51.074;3.704;2023-09-18T02:19:08;10.90;;;9.20;;
26702;SDS011;14316;51.074;3.704;2023-09-18T02:21:36;10.15;;;9.10;;
26702;SDS011;14316;51.074;3.704;2023-09-18T02:24:03;12.20;;;8.63;;
26702;SDS011;14316;51.074;3.704;2023-09-18T02:26:29;11.05;;;9.27;;
26702;SDS011;14316;51.074;3.704;2023-09-18T02:28:57;11.75;;;9.43;;
26702;SDS011;14316;51.074;3.704;2023-09-18T02:31:25;10.07;;;9.13;;
26702;SDS011;14316;51.074;3.704;2023-09-18T02:33:51;9.95;;;8.48;;
26702;SDS011;14316;51.074;3.704;2023-09-18T02:36:17;9.57;;;8.57;;
26702;SDS011;14316;51.074;3.704;2023-09-18T02:38:43;9.93;;;8.93;;
26702;SDS011;14316;51.074;3.704;2023-09-18T02:41:09;10.05;;;8.85;;
26702;SDS011;14316;51.074;3.704;2023-09-18T02:43:35;10.18;;;8.10;;
26702;SDS011;14316;51.074;3.704;2023-09-18T02:46:05;8.75;;;7.57;;
26702;SDS011;14316;51.074;3.704;2023-09-18T02:48:32;12.10;;;8.50;;
26702;SDS011;14316;51.074;3.704;2023-09-18T02:50:59;8.75;;;7.88;;
26702;SDS011;14316;51.074;3.704;2023-09-18T02:53:25;8.48;;;7.68;;
26702;SDS011;14316;51.074;3.704;2023-09-18T02:55:52;8.70;;;7.40;;
26702;SDS011;14316;51.074;3.704;2023-09-18T02:58:19;8.52;;;7.63;;
26702;SDS011;14316;51.074;3.704;2023-09-18T03:00:47;8.70;;;7.30;;
26702;SDS011;14316;51.074;3.704;2023-09-18T03:03:15;10.27;;;7.60;;
26702;SDS011;14316;51.074;3.704;2023-09-18T03:05:42;9.38;;;6.53;;
26702;SDS011;14316;51.074;3.704;2023-09-18T03:08:10;9.65;;;7.10;;
26702;SDS011;14316;51.074;3.704;2023-09-18T03:10:38;7.55;;;6.80;;
26702;SDS011;14316;51.074;3.704;2023-09-18T03:13:06;7.18;;;6.45;;
26702;SDS011;14316;51.074;3.704;2023-09-18T03:15:33;6.93;;;6.22;;
26702;SDS011;14316;51.074;3.704;2023-09-18T03:17:59;8.73;;;6.47;;
26702;SDS011;14316;51.074;3.704;2023-09-18T03:20:28;7.57;;;6.13;;
26702;SDS011;14316;51.074;3.704;2023-09-18T03:22:55;6.65;;;5.95;;
26702;SDS011;14316;51.074;3.704;2023-09-18T03:25:25;7.00;;;6.30;;
26702;SDS011;14316;51.074;3.704;2023-09-18T03:27:52;9.02;;;6.25;;
26702;SDS011;14316;51.074;3.704;2023-09-18T03:30:19;7.55;;;6.63;;
26702;SDS011;14316;51.074;3.704;2023-09-18T03:32:47;6.88;;;6.25;;
26702;SDS011;14316;51.074;3.704;2023-09-18T03:35:16;7.40;;;6.43;;
26702;SDS011;14316;51.074;3.704;2023-09-18T03:37:50;7.40;;;6.45;;
26702;SDS011;14316;51.074;3.704;2023-09-18T03:40:17;7.88;;;6.75;;
26702;SDS011;14316;51.074;3.704;2023-09-18T03:42:47;7.60;;;6.80;;
26702;SDS011;14316;51.074;3.704;2023-09-18T03:45:14;9.93;;;6.93;;
26702;SDS011;14316;51.074;3.704;2023-09-18T03:47:41;9.13;;;7.10;;
26702;SDS011;14316;51.074;3.704;2023-09-18T03:50:07;10.32;;;7.65;;
26702;SDS011;14316;51.074;3.704;2023-09-18T03:52:34;8.77;;;7.10;;
26702;SDS011;14316;51.074;3.704;2023-09-18T03:55:00;10.05;;;7.28;;
26702;SDS011;14316;51.074;3.704;2023-09-18T03:57:27;9.88;;;7.82;;
26702;SDS011;14316;51.074;3.704;2023-09-18T03:59:53;8.20;;;7.05;;
26702;SDS011;14316;51.074;3.704;2023-09-18T04:02:21;7.55;;;6.82;;
26702;SDS011;14316;51.074;3.704;2023-09-18T04:04:49;9.82;;;8.40;;
26702;SDS011;14316;51.074;3.704;2023-09-18T04:07:15;9.23;;;7.80;;
26702;SDS011;14316;51.074;3.704;2023-09-18T04:09:42;8.43;;;7.63;;
26702;SDS011;14316;51.074;3.704;2023-09-18T04:12:08;10.88;;;8.07;;
26702;SDS011;14316;51.074;3.704;2023-09-18T04:14:35;9.52;;;7.50;;
26702;SDS011;14316;51.074;3.704;2023-09-18T04:17:01;9.27;;;6.95;;
26702;SDS011;14316;51.074;3.704;2023-09-18T04:19:28;6.00;;;5.30;;
26702;SDS011;14316;51.074;3.704;2023-09-18T04:21:54;7.35;;;6.55;;
26702;SDS011;14316;51.074;3.704;2023-09-18T04:24:21;9.88;;;6.97;;
26702;SDS011;14316;51.074;3.704;2023-09-18T04:26:48;7.65;;;6.13;;
26702;SDS011;14316;51.074;3.704;2023-09-18T04:29:16;7.95;;;5.75;;
26702;SDS011;14316;51.074;3.704;2023-09-18T04:31:42;6.05;;;5.45;;
26702;SDS011;14316;51.074;3.704;2023-09-18T04:34:10;7.90;;;5.50;;
26702;SDS011;14316;51.074;3.704;2023-09-18T04:36:36;7.75;;;4.90;;
26702;SDS011;14316;51.074;3.704;2023-09-18T04:39:03;5.38;;;4.88;;
26702;SDS011;14316;51.074;3.704;2023-09-18T04:41:32;6.13;;;5.10;;
26702;SDS011;14316;51.074;3.704;2023-09-18T04:43:59;6.43;;;4.63;;
26702;SDS011;14316;51.074;3.704;2023-09-18T04:46:27;7.28;;;4.68;;
26702;SDS011;14316;51.074;3.704;2023-09-18T04:48:54;4.72;;;4.20;;
26702;SDS011;14316;51.074;3.704;2023-09-18T04:51:21;8.00;;;4.70;;
26702;SDS011;14316;51.074;3.704;2023-09-18T04:53:47;7.05;;;4.38;;
26702;SDS011;14316;51.074;3.704;2023-09-18T04:56:12;6.43;;;4.43;;
26702;SDS011;14316;51.074;3.704;2023-09-18T04:58:38;5.97;;;4.20;;
26702;SDS011;14316;51.074;3.704;2023-09-18T05:01:05;5.68;;;4.03;;
26702;SDS011;14316;51.074;3.704;2023-09-18T05:03:35;5.22;;;3.80;;
26702;SDS011;14316;51.074;3.704;2023-09-18T05:06:02;5.20;;;4.18;;
26702;SDS011;14316;51.074;3.704;2023-09-18T05:08:30;5.47;;;4.38;;
26702;SDS011;14316;51.074;3.704;2023-09-18T05:10:57;7.30;;;3.85;;
26702;SDS011;14316;51.074;3.704;2023-09-18T05:13:23;6.45;;;4.50;;
26702;SDS011;14316;51.074;3.704;2023-09-18T05:15:49;7.15;;;4.40;;
26702;SDS011;14316;51.074;3.704;2023-09-18T05:18:15;5.60;;;3.92;;
26702;SDS011;14316;51.074;3.704;2023-09-18T05:20:41;7.38;;;4.70;;
26702;SDS011;14316;51.074;3.704;2023-09-18T05:23:07;4.75;;;4.18;;
26702;SDS011;14316;51.074;3.704;2023-09-18T05:25:33;5.57;;;4.05;;
26702;SDS011;14316;51.074;3.704;2023-09-18T05:28:03;5.63;;;3.88;;
26702;SDS011;14316;51.074;3.704;2023-09-18T05:30:31;4.32;;;3.92;;
26702;SDS011;14316;51.074;3.704;2023-09-18T05:33:00;7.07;;;4.20;;
26702;SDS011;14316;51.074;3.704;2023-09-18T05:35:39;6.72;;;4.15;;
26702;SDS011;14316;51.074;3.704;2023-09-18T05:38:10;5.25;;;4.55;;
26702;SDS011;14316;51.074;3.704;2023-09-18T05:40:38;7.60;;;3.95;;
26702;SDS011;14316;51.074;3.704;2023-09-18T05:43:05;4.55;;;3.65;;
26702;SDS011;14316;51.074;3.704;2023-09-18T05:45:32;5.35;;;3.80;;
26702;SDS011;14316;51.074;3.704;2023-09-18T05:47:59;5.60;;;3.70;;
26702;SDS011;14316;51.074;3.704;2023-09-18T05:50:31;5.57;;;3.97;;
26702;SDS011;14316;51.074;3.704;2023-09-18T05:53:00;8.43;;;3.75;;
26702;SDS011;14316;51.074;3.704;2023-09-18T05:55:32;6.38;;;4.03;;
26702;SDS011;14316;51.074;3.704;2023-09-18T05:57:59;5.93;;;4.07;;
26702;SDS011;14316;51.074;3.704;2023-09-18T06:00:25;6.75;;;4.00;;
26702;SDS011;14316;51.074;3.704;2023-09-18T06:02:52;7.88;;;3.97;;
26702;SDS011;14316;51.074;3.704;2023-09-18T06:05:18;5.95;;;4.40;;
26702;SDS011;14316;51.074;3.704;2023-09-18T06:07:48;5.95;;;3.92;;
26702;SDS011;14316;51.074;3.704;2023-09-18T06:10:14;6.75;;;4.20;;
26702;SDS011;14316;51.074;3.704;2023-09-18T06:12:41;6.05;;;4.50;;
26702;SDS011;14316;51.074;3.704;2023-09-18T06:15:08;7.88;;;3.85;;
26702;SDS011;14316;51.074;3.704;2023-09-18T06:17:38;5.30;;;4.25;;
26702;SDS011;14316;51.074;3.704;2023-09-18T06:20:05;5.60;;;4.43;;
26702;SDS011;14316;51.074;3.704;2023-09-18T06:22:35;7.05;;;4.30;;
26702;SDS011;14316;51.074;3.704;2023-09-18T06:25:03;6.95;;;4.38;;
26702;SDS011;14316;51.074;3.704;2023-09-18T06:27:29;4.55;;;4.15;;
26702;SDS011;14316;51.074;3.704;2023-09-18T06:29:57;5.90;;;4.38;;
26702;SDS011;14316;51.074;3.704;2023-09-18T06:32:23;6.50;;;4.88;;
26702;SDS011;14316;51.074;3.704;2023-09-18T06:34:49;5.32;;;4.38;;
26702;SDS011;14316;51.074;3.704;2023-09-18T06:37:15;5.55;;;4.15;;
26702;SDS011;14316;51.074;3.704;2023-09-18T06:39:42;4.30;;;3.90;;
26702;SDS011;14316;51.074;3.704;2023-09-18T06:42:09;7.25;;;4.25;;
26702;SDS011;14316;51.074;3.704;2023-09-18T06:44:35;6.70;;;4.30;;
26702;SDS011;14316;51.074;3.704;2023-09-18T06:47:00;9.45;;;4.70;;
26702;SDS011;14316;51.074;3.704;2023-09-18T06:49:27;6.18;;;4.03;;
26702;SDS011;14316;51.074;3.704;2023-09-18T06:51:53;5.70;;;4.07;;
26702;SDS011;14316;51.074;3.704;2023-09-18T06:54:19;5.72;;;4.50;;
26702;SDS011;14316;51.074;3.704;2023-09-18T06:56:46;6.18;;;4.38;;
26702;SDS011;14316;51.074;3.704;2023-09-18T06:59:12;8.27;;;4.38;;
26702;SDS011;14316;51.074;3.704;2023-09-18T07:01:39;9.32;;;5.07;;
26702;SDS011;14316;51.074;3.704;2023-09-18T07:04:06;8.38;;;5.30;;
26702;SDS011;14316;51.074;3.704;2023-09-18T07:06:33;5.28;;;4.68;;
26702;SDS011;14316;51.074;3.704;2023-09-18T07:08:59;7.57;;;4.57;;
26702;SDS011;14316;51.074;3.704;2023-09-18T07:11:25;6.88;;;4.50;;
26702;SDS011;14316;51.074;3.704;2023-09-18T07:13:51;6.22;;;4.53;;
26702;SDS011;14316;51.074;3.704;2023-09-18T07:16:17;7.03;;;4.25;;
26702;SDS011;14316;51.074;3.704;2023-09-18T07:18:44;6.55;;;4.40;;
26702;SDS011;14316;51.074;3.704;2023-09-18T07:21:09;8.50;;;4.45;;
26702;SDS011;14316;51.074;3.704;2023-09-18T07:23:35;7.55;;;4.47;;
26702;SDS011;14316;51.074;3.704;2023-09-18T07:26:02;6.45;;;5.00;;
26702;SDS011;14316;51.074;3.704;2023-09-18T07:28:28;6.45;;;4.60;;
26702;SDS011;14316;51.074;3.704;2023-09-18T07:30:55;5.47;;;4.78;;
26702;SDS011;14316;51.074;3.704;2023-09-18T07:33:20;6.18;;;4.70;;
26702;SDS011;14316;51.074;3.704;2023-09-18T07:35:47;7.53;;;5.13;;
26702;SDS011;14316;51.074;3.704;2023-09-18T07:38:14;7.30;;;5.22;;
26702;SDS011;14316;51.074;3.704;2023-09-18T07:40:40;6.82;;;5.10;;
26702;SDS011;14316;51.074;3.704;2023-09-18T07:43:06;5.45;;;4.38;;
26702;SDS011;14316;51.074;3.704;2023-09-18T07:45:33;6.22;;;4.25;;
26702;SDS011;14316;51.074;3.704;2023-09-18T07:47:59;5.35;;;4.85;;
26702;SDS011;14316;51.074;3.704;2023-09-18T07:50:25;6.60;;;4.88;;
26702;SDS011;14316;51.074;3.704;2023-09-18T07:52:52;7.28;;;5.05;;
26702;SDS011;14316;51.074;3.704;2023-09-18T07:55:19;7.55;;;5.75;;
26702;SDS011;14316;51.074;3.704;2023-09-18T07:57:45;7.63;;;5.60;;
26702;SDS011;14316;51.074;3.704;2023-09-18T08:00:11;5.38;;;4.88;;
26702;SDS011;14316;51.074;3.704;2023-09-18T08:02:38;6.93;;;5.20;;
26702;SDS011;14316;51.074;3.704;2023-09-18T08:05:05;7.32;;;6.07;;
26702;SDS011;14316;51.074;3.704;2023-09-18T08:07:32;6.35;;;5.70;;
26702;SDS011;14316;51.074;3.704;2023-09-18T08:09:58;9.48;;;5.95;;
26702;SDS011;14316;51.074;3.704;2023-09-18T08:12:24;7.68;;;5.90;;
26702;SDS011;14316;51.074;3.704;2023-09-18T08:14:50;7.38;;;5.95;;
26702;SDS011;14316;51.074;3.704;2023-09-18T08:17:16;7.18;;;5.70;;
26702;SDS011;14316;51.074;3.704;2023-09-18T08:19:42;6.75;;;5.28;;
26702;SDS011;14316;51.074;3.704;2023-09-18T08:22:09;6.72;;;5.63;;
26702;SDS011;14316;51.074;3.704;2023-09-18T08:24:40;8.25;;;5.60;;
26702;SDS011;14316;51.074;3.704;2023-09-18T08:27:06;6.57;;;5.97;;
26702;SDS011;14316;51.074;3.704;2023-09-18T08:29:32;10.57;;;6.20;;
26702;SDS011;14316;51.074;3.704;2023-09-18T08:31:59;8.30;;;6.15;;
26702;SDS011;14316;51.074;3.704;2023-09-18T08:34:24;6.68;;;6.00;;
26702;SDS011;14316;51.074;3.704;2023-09-18T08:36:51;6.40;;;5.78;;
26702;SDS011;14316;51.074;3.704;2023-09-18T08:39:17;9.15;;;5.90;;
26702;SDS011;14316;51.074;3.704;2023-09-18T08:41:43;7.55;;;5.43;;
26702;SDS011;14316;51.074;3.704;2023-09-18T08:44:14;8.02;;;6.20;;
26702;SDS011;14316;51.074;3.704;2023-09-18T08:46:40;6.93;;;5.95;;
26702;SDS011;14316;51.074;3.704;2023-09-18T08:49:06;8.80;;;5.65;;
26702;SDS011;14316;51.074;3.704;2023-09-18T08:51:33;8.68;;;5.47;;
26702;SDS011;14316;51.074;3.704;2023-09-18T08:54:00;5.35;;;4.75;;
26702;SDS011;14316;51.074;3.704;2023-09-18T08:56:28;7.18;;;5.85;;
26702;SDS011;14316;51.074;3.704;2023-09-18T08:58:56;7.43;;;4.47;;
26702;SDS011;14316;51.074;3.704;2023-09-18T09:01:23;8.30;;;5.55;;
26702;SDS011;14316;51.074;3.704;2023-09-18T09:03:49;5.50;;;4.03;;
26702;SDS011;14316;51.074;3.704;2023-09-18T09:06:16;6.93;;;5.03;;
26702;SDS011;14316;51.074;3.704;2023-09-18T09:08:42;6.72;;;4.35;;
26702;SDS011;14316;51.074;3.704;2023-09-18T09:11:08;5.13;;;4.60;;
26702;SDS011;14316;51.074;3.704;2023-09-18T09:13:34;6.75;;;4.60;;
26702;SDS011;14316;51.074;3.704;2023-09-18T09:16:01;5.63;;;3.97;;
26702;SDS011;14316;51.074;3.704;2023-09-18T09:18:30;7.05;;;5.05;;
26702;SDS011;14316;51.074;3.704;2023-09-18T09:23:27;9.27;;;4.90;;
26702;SDS011;14316;51.074;3.704;2023-09-18T09:26:11;6.75;;;4.22;;
26702;SDS011;14316;51.074;3.704;2023-09-18T09:28:38;4.97;;;4.53;;
26702;SDS011;14316;51.074;3.704;2023-09-18T09:31:05;7.68;;;4.90;;
26702;SDS011;14316;51.074;3.704;2023-09-18T09:33:32;8.50;;;5.13;;
26702;SDS011;14316;51.074;3.704;2023-09-18T09:35:58;6.18;;;4.88;;
26702;SDS011;14316;51.074;3.704;2023-09-18T09:38:28;9.20;;;5.47;;
26702;SDS011;14316;51.074;3.704;2023-09-18T09:40:59;9.20;;;5.22;;
26702;SDS011;14316;51.074;3.704;2023-09-18T09:43:26;7.03;;;4.90;;
26702;SDS011;14316;51.074;3.704;2023-09-18T09:45:57;10.10;;;5.53;;
26702;SDS011;14316;51.074;3.704;2023-09-18T09:48:23;7.75;;;5.25;;
26702;SDS011;14316;51.074;3.704;2023-09-18T09:50:51;6.65;;;5.25;;
26702;SDS011;14316;51.074;3.704;2023-09-18T09:53:20;6.85;;;4.43;;
26702;SDS011;14316;51.074;3.704;2023-09-18T09:56:13;7.82;;;4.85;;
26702;SDS011;14316;51.074;3.704;2023-09-18T09:59:02;5.43;;;4.68;;
26702;SDS011;14316;51.074;3.704;2023-09-18T10:01:33;7.07;;;4.72;;
26702;SDS011;14316;51.074;3.704;2023-09-18T10:04:08;8.15;;;5.20;;
26702;SDS011;14316;51.074;3.704;2023-09-18T10:06:40;7.07;;;4.72;;
26702;SDS011;14316;51.074;3.704;2023-09-18T10:09:08;7.13;;;4.63;;
26702;SDS011;14316;51.074;3.704;2023-09-18T10:11:37;9.32;;;5.10;;
26702;SDS011;14316;51.074;3.704;2023-09-18T10:16:41;6.57;;;4.63;;
26702;SDS011;14316;51.074;3.704;2023-09-18T10:24:41;5.75;;;4.05;;
26702;SDS011;14316;51.074;3.704;2023-09-18T10:27:12;5.40;;;4.28;;
26702;SDS011;14316;51.074;3.704;2023-09-18T10:29:41;5.15;;;4.00;;
26702;SDS011;14316;51.074;3.704;2023-09-18T10:32:09;9.63;;;4.43;;
26702;SDS011;14316;51.074;3.704;2023-09-18T10:34:37;5.57;;;3.92;;
26702;SDS011;14316;51.074;3.704;2023-09-18T10:37:04;7.30;;;4.35;;
26702;SDS011;14316;51.074;3.704;2023-09-18T10:39:34;5.72;;;4.30;;
26702;SDS011;14316;51.074;3.704;2023-09-18T10:42:02;5.57;;;4.25;;
26702;SDS011;14316;51.074;3.704;2023-09-18T10:44:30;4.97;;;4.30;;
26702;SDS011;14316;51.074;3.704;2023-09-18T10:47:00;8.80;;;3.90;;
26702;SDS011;14316;51.074;3.704;2023-09-18T10:49:27;6.47;;;4.30;;
26702;SDS011;14316;51.074;3.704;2023-09-18T10:51:55;7.93;;;4.10;;
26702;SDS011;14316;51.074;3.704;2023-09-18T10:54:23;8.90;;;4.30;;
26702;SDS011;14316;51.074;3.704;2023-09-18T10:56:51;5.38;;;4.13;;
26702;SDS011;14316;51.074;3.704;2023-09-18T10:59:18;5.05;;;4.03;;
26702;SDS011;14316;51.074;3.704;2023-09-18T11:01:46;6.18;;;4.30;;
26702;SDS011;14316;51.074;3.704;2023-09-18T11:04:17;12.85;;;4.22;;
26702;SDS011;14316;51.074;3.704;2023-09-18T11:09:27;6.65;;;3.80;;
26702;SDS011;14316;51.074;3.704;2023-09-18T11:20:16;4.10;;;2.65;;
26702;SDS011;14316;51.074;3.704;2023-09-18T11:23:09;3.28;;;2.70;;
26702;SDS011;14316;51.074;3.704;2023-09-18T11:25:43;3.88;;;3.35;;
26702;SDS011;14316;51.074;3.704;2023-09-18T11:28:24;4.40;;;2.88;;
26702;SDS011;14316;51.074;3.704;2023-09-18T11:30:53;4.25;;;2.95;;
26702;SDS011;14316;51.074;3.704;2023-09-18T11:33:30;4.03;;;2.58;;
26702;SDS011;14316;51.074;3.704;2023-09-18T11:36:01;3.60;;;2.70;;
26702;SDS011;14316;51.074;3.704;2023-09-18T11:38:31;6.40;;;2.95;;
26702;SDS011;14316;51.074;3.704;2023-09-18T11:40:59;4.47;;;2.75;;
26702;SDS011;14316;51.074;3.704;2023-09-18T11:43:29;4.35;;;3.00;;
26702;SDS011;14316;51.074;3.704;2023-09-18T11:45:56;5.05;;;2.80;;
26702;SDS011;14316;51.074;3.704;2023-09-18T11:48:23;3.85;;;2.80;;
26702;SDS011;14316;51.074;3.704;2023-09-18T11:50:51;5.15;;;2.80;;
26702;SDS011;14316;51.074;3.704;2023-09-18T11:53:17;4.15;;;2.72;;
26702;SDS011;14316;51.074;3.704;2023-09-18T11:55:47;3.67;;;2.58;;
26702;SDS011;14316;51.074;3.704;2023-09-18T11:58:13;2.97;;;2.50;;
26702;SDS011;14316;51.074;3.704;2023-09-18T12:00:40;3.63;;;2.22;;
26702;SDS011;14316;51.074;3.704;2023-09-18T12:03:16;3.63;;;2.58;;
26702;SDS011;14316;51.074;3.704;2023-09-18T12:08:23;4.18;;;2.60;;
26702;SDS011;14316;51.074;3.704;2023-09-18T12:10:53;4.57;;;2.78;;
26702;SDS011;14316;51.074;3.704;2023-09-18T12:13:20;3.17;;;2.83;;
26702;SDS011;14316;51.074;3.704;2023-09-18T12:15:47;3.83;;;2.42;;
26702;SDS011;14316;51.074;3.704;2023-09-18T12:18:14;3.80;;;2.65;;
26702;SDS011;14316;51.074;3.704;2023-09-18T12:20:45;4.55;;;2.63;;
26702;SDS011;14316;51.074;3.704;2023-09-18T12:23:12;7.68;;;3.00;;
26702;SDS011;14316;51.074;3.704;2023-09-18T12:25:38;6.25;;;2.33;;
26702;SDS011;14316;51.074;3.704;2023-09-18T12:28:08;5.13;;;2.55;;
26702;SDS011;14316;51.074;3.704;2023-09-18T12:30:34;3.30;;;2.10;;
26702;SDS011;14316;51.074;3.704;2023-09-18T12:33:03;3.65;;;2.45;;
26702;SDS011;14316;51.074;3.704;2023-09-18T12:35:30;3.25;;;2.00;;
26702;SDS011;14316;51.074;3.704;2023-09-18T12:37:57;3.03;;;2.22;;
26702;SDS011;14316;51.074;3.704;2023-09-18T12:40:33;4.78;;;2.60;;
26702;SDS011;14316;51.074;3.704;2023-09-18T12:42:59;4.05;;;2.83;;
26702;SDS011;14316;51.074;3.704;2023-09-18T12:45:27;3.70;;;2.20;;
26702;SDS011;14316;51.074;3.704;2023-09-18T12:47:54;5.03;;;2.67;;
26702;SDS011;14316;51.074;3.704;2023-09-18T12:50:22;4.82;;;2.70;;
26702;SDS011;14316;51.074;3.704;2023-09-18T12:52:48;5.18;;;2.17;;
26702;SDS011;14316;51.074;3.704;2023-09-18T12:55:26;5.88;;;2.25;;
26702;SDS011;14316;51.074;3.704;2023-09-18T12:57:53;4.55;;;2.20;;
26702;SDS011;14316;51.074;3.704;2023-09-18T13:00:19;4.57;;;2.45;;
26702;SDS011;14316;51.074;3.704;2023-09-18T13:02:52;5.30;;;2.22;;
26702;SDS011;14316;51.074;3.704;2023-09-18T13:05:20;5.40;;;2.40;;
26702;SDS011;14316;51.074;3.704;2023-09-18T13:07:51;5.00;;;2.30;;
26702;SDS011;14316;51.074;3.704;2023-09-18T13:10:18;6.18;;;2.50;;
26702;SDS011;14316;51.074;3.704;2023-09-18T13:12:51;5.03;;;2.50;;
26702;SDS011;14316;51.074;3.704;2023-09-18T13:15:27;6.18;;;2.80;;
26702;SDS011;14316;51.074;3.704;2023-09-18T13:17:54;6.15;;;2.85;;
26702;SDS011;14316;51.074;3.704;2023-09-18T13:20:21;5.25;;;2.97;;
26702;SDS011;14316;51.074;3.704;2023-09-18T13:22:51;16.05;;;3.55;;
26702;SDS011;14316;51.074;3.704;2023-09-18T13:25:24;3.38;;;1.52;;
26702;SDS011;14316;51.074;3.704;2023-09-18T13:27:53;11.38;;;2.55;;
26702;SDS011;14316;51.074;3.704;2023-09-18T13:30:20;6.85;;;2.35;;
26702;SDS011;14316;51.074;3.704;2023-09-18T13:32:48;5.40;;;1.98;;
26702;SDS011;14316;51.074;3.704;2023-09-18T13:35:15;3.42;;;2.08;;
26702;SDS011;14316;51.074;3.704;2023-09-18T13:37:42;2.58;;;2.38;;
26702;SDS011;14316;51.074;3.704;2023-09-18T13:40:09;7.15;;;3.13;;
26702;SDS011;14316;51.074;3.704;2023-09-18T13:42:36;5.60;;;3.95;;
26702;SDS011;14316;51.074;3.704;2023-09-18T13:45:04;6.63;;;4.05;;
26702;SDS011;14316;51.074;3.704;2023-09-18T13:47:31;6.15;;;3.10;;
26702;SDS011;14316;51.074;3.704;2023-09-18T13:50:03;6.50;;;5.15;;
26702;SDS011;14316;51.074;3.704;2023-09-18T13:52:31;5.32;;;4.40;;
26702;SDS011;14316;51.074;3.704;2023-09-18T13:54:59;9.60;;;5.07;;
26702;SDS011;14316;51.074;3.704;2023-09-18T13:57:25;7.55;;;6.18;;
26702;SDS011;14316;51.074;3.704;2023-09-18T13:59:51;8.35;;;5.50;;
26702;SDS011;14316;51.074;3.704;2023-09-18T14:02:18;8.00;;;5.38;;
26702;SDS011;14316;51.074;3.704;2023-09-18T14:04:45;5.72;;;3.47;;
26702;SDS011;14316;51.074;3.704;2023-09-18T14:07:11;5.65;;;3.67;;
26702;SDS011;14316;51.074;3.704;2023-09-18T14:09:37;4.68;;;3.13;;
26702;SDS011;14316;51.074;3.704;2023-09-18T14:12:04;4.90;;;3.15;;
26702;SDS011;14316;51.074;3.704;2023-09-18T14:14:32;3.50;;;2.10;;
26702;SDS011;14316;51.074;3.704;2023-09-18T14:16:59;3.55;;;3.00;;
26702;SDS011;14316;51.074;3.704;2023-09-18T14:19:25;4.00;;;2.78;;
26702;SDS011;14316;51.074;3.704;2023-09-18T14:21:51;5.28;;;2.95;;
26702;SDS011;14316;51.074;3.704;2023-09-18T14:24:18;3.30;;;1.88;;
26702;SDS011;14316;51.074;3.704;2023-09-18T14:26:47;4.72;;;2.00;;
26702;SDS011;14316;51.074;3.704;2023-09-18T14:29:14;3.92;;;2.17;;
26702;SDS011;14316;51.074;3.704;2023-09-18T14:31:40;3.35;;;1.90;;
26702;SDS011;14316;51.074;3.704;2023-09-18T14:34:06;3.78;;;1.95;;
26702;SDS011;14316;51.074;3.704;2023-09-18T14:36:33;4.18;;;2.40;;
26702;SDS011;14316;51.074;3.704;2023-09-18T14:39:01;3.08;;;1.85;;
26702;SDS011;14316;51.074;3.704;2023-09-18T14:41:28;3.38;;;1.38;;
26702;SDS011;14316;51.074;3.704;2023-09-18T14:43:55;3.45;;;2.15;;
26702;SDS011;14316;51.074;3.704;2023-09-18T14:46:24;2.42;;;1.60;;
26702;SDS011;14316;51.074;3.704;2023-09-18T14:48:50;2.88;;;1.67;;
26702;SDS011;14316;51.074;3.704;2023-09-18T14:51:16;5.95;;;1.95;;
26702;SDS011;14316;51.074;3.704;2023-09-18T14:53:43;4.90;;;1.98;;
26702;SDS011;14316;51.074;3.704;2023-09-18T14:56:09;4.05;;;1.33;;
26702;SDS011;14316;51.074;3.704;2023-09-18T14:58:35;4.15;;;1.90;;
26702;SDS011;14316;51.074;3.704;2023-09-18T15:01:01;2.35;;;1.73;;
26702;SDS011;14316;51.074;3.704;2023-09-18T15:03:28;4.18;;;2.00;;
26702;SDS011;14316;51.074;3.704;2023-09-18T15:05:54;3.75;;;1.60;;
26702;SDS011;14316;51.074;3.704;2023-09-18T15:08:20;4.85;;;1.98;;
26702;SDS011;14316;51.074;3.704;2023-09-18T15:10:46;4.30;;;2.38;;
26702;SDS011;14316;51.074;3.704;2023-09-18T15:13:12;5.38;;;1.92;;
26702;SDS011;14316;51.074;3.704;2023-09-18T15:15:41;3.95;;;1.90;;